Pocono Lake, Pennsylvania
Current Conditions -  °F | °C
As of 1:53 PM on Friday 21 Nov 2014 (Local Time) from KMPO Reporting Station
Scattered Clouds Scattered Clouds  
Wind Chill: 17°   Ceiling: Unl
Heat Index: 28°   Visibility: 10mi
Dew Point:   Wind: 15mph
Humidity: 41%   Direction: 320°NW
Pressure: 30.23"   Gusts: 23mph
Location:  41.09°N, 75.58°W
Report Text: KMPO 211853Z AUTO 32013G20KT 10SM SCT046 M02/M14 A3023 RMK AO2 SLP265 T10221139
Loading
Personal Weather Stations






























Interactive Weather Map New forecast layout! Learn more

10-Day Weather Forecast

Advertisements
Track Severe Weather on mobile